Time;durP1;ratioP1;P1;durP2;ratioP2;P2;SDS_P1;SDS_P2;PMS_P1;PMS_P2;Temp;Humidity;BMP_temperature;BMP_pressure;BME280_temperature;BME280_humidity;BME280_pressure;Samples;Min_cycle;Max_cycle;Signal;HPM_P1;HPM_P2
2023/09/15 00:00:42;;;;;;;5.13;4.40;;;13.60;68.90;;;;;;5053496;28;20790;-71
2023/09/15 00:03:07;;;;;;;5.97;4.67;;;13.60;68.60;;;;;;5053094;28;20441;-71
2023/09/15 00:05:37;;;;;;;5.73;3.67;;;13.50;69.00;;;;;;5052030;28;20578;-71
2023/09/15 00:08:04;;;;;;;6.60;4.40;;;13.50;68.30;;;;;;5053182;28;20251;-71
2023/09/15 00:10:31;;;;;;;5.80;4.33;;;13.50;68.50;;;;;;5052726;28;20442;-70
2023/09/15 00:12:58;;;;;;;5.87;4.20;;;13.40;69.00;;;;;;5053078;28;20853;-71
2023/09/15 00:15:24;;;;;;;5.27;4.23;;;13.40;69.30;;;;;;5053207;28;20424;-71
2023/09/15 00:17:50;;;;;;;6.37;4.03;;;13.40;69.40;;;;;;5052995;28;20438;-71
2023/09/15 00:20:16;;;;;;;5.43;4.13;;;13.30;69.50;;;;;;5053012;28;20482;-71
2023/09/15 00:22:49;;;;;;;5.70;4.27;;;13.30;69.90;;;;;;5054324;28;20173;-71
2023/09/15 00:25:35;;;;;;;5.20;4.20;;;13.30;69.90;;;;;;5053035;28;20491;-71
2023/09/15 00:28:02;;;;;;;5.93;4.07;;;13.30;70.50;;;;;;5052610;28;20845;-71
2023/09/15 00:30:28;;;;;;;6.63;4.70;;;13.20;69.60;;;;;;5052849;28;20418;-71
2023/09/15 00:32:55;;;;;;;5.67;4.13;;;13.20;70.10;;;;;;5053078;28;20914;-72
2023/09/15 00:35:23;;;;;;;4.30;3.10;;;13.10;69.20;;;;;;5051742;28;20430;-72
2023/09/15 00:37:50;;;;;;;7.37;4.40;;;13.10;70.80;;;;;;5052798;28;20439;-71
2023/09/15 00:40:17;;;;;;;6.27;4.07;;;13.10;70.40;;;;;;5052787;28;20417;-71
2023/09/15 00:42:48;;;;;;;5.57;3.87;;;13.10;71.70;;;;;;5052531;28;20502;-71
2023/09/15 00:45:14;;;;;;;6.10;3.93;;;13.00;71.40;;;;;;5052485;28;20496;-71
2023/09/15 00:47:59;;;;;;;5.03;4.53;;;13.00;71.60;;;;;;5052656;28;20432;-72
2023/09/15 00:50:28;;;;;;;11.47;5.80;;;13.00;71.60;;;;;;5051189;28;20425;-72
2023/09/15 00:53:00;;;;;;;6.70;4.43;;;12.90;71.90;;;;;;5052384;28;20422;-72
2023/09/15 00:55:26;;;;;;;4.70;3.47;;;12.90;71.60;;;;;;5052557;28;20485;-70
2023/09/15 00:57:53;;;;;;;7.70;4.77;;;12.80;74.20;;;;;;5052316;28;20801;-71
2023/09/15 01:00:19;;;;;;;5.60;4.23;;;12.80;73.90;;;;;;5052551;28;20434;-70
2023/09/15 01:02:46;;;;;;;4.83;4.07;;;12.80;76.30;;;;;;5052405;28;20447;-71
2023/09/15 01:05:19;;;;;;;7.50;5.37;;;12.80;75.80;;;;;;5052446;28;20500;-71
2023/09/15 01:07:50;;;;;;;6.20;5.20;;;12.80;77.20;;;;;;5052122;28;20433;-71
2023/09/15 01:10:16;;;;;;;6.57;4.80;;;12.80;78.20;;;;;;5052217;28;20502;-70
2023/09/15 01:12:43;;;;;;;5.93;4.43;;;12.80;77.80;;;;;;5052066;28;20961;-71
2023/09/15 01:15:09;;;;;;;4.07;3.53;;;12.70;77.30;;;;;;5052333;28;20174;-71
2023/09/15 01:18:00;;;;;;;5.30;4.37;;;12.70;77.80;;;;;;5050600;28;20434;-71
2023/09/15 01:20:41;;;;;;;6.37;5.40;;;;;;;;;;5050577;28;20532;-71
2023/09/15 01:23:07;;;;;;;4.57;3.40;;;;;;;;;;5051691;28;20413;-71
2023/09/15 01:25:46;;;;;;;7.60;4.97;;;;;;;;;;5052050;28;20422;-72
2023/09/15 01:28:20;;;;;;;6.70;4.10;;;;;;;;;;5050526;28;20437;-71
2023/09/15 01:30:49;;;;;;;6.70;5.57;;;;;;;;;;5052199;28;20814;-71
2023/09/15 01:33:15;;;;;;;5.30;3.80;;;;;;;;;;5051466;28;20409;-72
2023/09/15 01:35:41;;;;;;;9.67;4.97;;;;;;;;;;5051993;28;20909;-71
2023/09/15 01:38:07;;;;;;;5.70;3.97;;;;;;;;;;5051492;28;20428;-71
2023/09/15 01:40:33;;;;;;;5.27;4.30;;;;;;;;;;5052606;28;20483;-71
2023/09/15 01:42:59;;;;;;;5.77;4.60;;;;;;;;;;5055604;28;20922;-71
2023/09/15 01:45:25;;;;;;;5.60;4.13;;;;;;;;;;5070826;28;20404;-71
2023/09/15 01:47:51;;;;;;;8.43;3.80;;;;;;;;;;5069398;28;20528;-71
2023/09/15 01:50:18;;;;;;;7.50;4.63;;;;;;;;;;5071375;28;20405;-71
2023/09/15 01:52:44;;;;;;;6.00;4.50;;;;;;;;;;5071206;28;20465;-71
2023/09/15 01:55:11;;;;;;;5.80;4.33;;;;;;;;;;5071553;28;20502;-71
2023/09/15 01:57:37;;;;;;;6.37;4.80;;;;;;;;;;5070406;28;20523;-70
2023/09/15 02:00:04;;;;;;;5.63;3.83;;;;;;;;;;5076493;23;20998;-69
2023/09/15 02:02:30;;;;;;;5.50;4.60;;;;;;;;;;5051500;28;20429;-69
2023/09/15 02:04:56;;;;;;;8.17;4.80;;;;;;;;;;5052953;28;20472;-69
2023/09/15 02:07:22;;;;;;;7.67;4.70;;;;;;;;;;5053211;28;20413;-69
2023/09/15 02:09:48;;;;;;;5.60;4.30;;;;;;;;;;5052860;28;20459;-70
2023/09/15 02:12:14;;;;;;;6.03;4.73;;;;;;;;;;5051324;28;20794;-69
2023/09/15 02:14:40;;;;;;;4.60;3.60;;;;;;;;;;5051383;28;20432;-69
2023/09/15 02:17:06;;;;;;;4.73;3.97;;;;;;;;;;5051606;28;20429;-69
2023/09/15 02:19:33;;;;;;;5.63;4.63;;;;;;;;;;5053448;28;20434;-69
2023/09/15 02:21:59;;;;;;;5.30;4.37;;;;;;;;;;5053404;28;20425;-70
2023/09/15 02:24:26;;;;;;;7.47;5.03;;;;;;;;;;5052706;28;20465;-70
2023/09/15 02:26:52;;;;;;;5.97;5.10;;;;;;;;;;5053825;28;20401;-70
2023/09/15 02:29:18;;;;;;;5.30;4.50;;;;;;;;;;5053570;28;20516;-69
2023/09/15 02:31:43;;;;;;;6.17;3.77;;;;;;;;;;5053114;28;20405;-70
2023/09/15 02:34:10;;;;;;;7.50;4.40;;;;;;;;;;5057344;28;20833;-70
2023/09/15 02:36:36;;;;;;;6.13;4.63;;;;;;;;;;5056872;28;20425;-70
2023/09/15 02:39:02;;;;;;;5.50;4.30;;;;;;;;;;5055978;28;20456;-70
2023/09/15 02:41:28;;;;;;;7.37;4.00;;;;;;;;;;5055908;28;20413;-70
2023/09/15 02:43:54;;;;;;;5.60;3.67;;;;;;;;;;5056720;28;20493;-70
2023/09/15 02:46:20;;;;;;;7.33;4.70;;;;;;;;;;5055560;28;20446;-70
2023/09/15 02:48:46;;;;;;;5.70;4.30;;;;;;;;;;5054393;28;20444;-70
2023/09/15 02:51:11;;;;;;;5.83;4.13;;;;;;;;;;5055657;28;20410;-69
2023/09/15 02:53:37;;;;;;;6.50;4.53;;;;;;;;;;5056060;28;20500;-70
2023/09/15 02:56:04;;;;;;;5.47;4.83;;;;;;;;;;5054440;28;20559;-69
2023/09/15 02:58:31;;;;;;;4.70;4.10;;;;;;;;;;5055400;28;20476;-70
2023/09/15 03:00:57;;;;;;;5.90;4.20;;;;;;;;;;5053831;28;20413;-68
2023/09/15 03:03:23;;;;;;;7.60;6.13;;;;;;;;;;5054855;28;20834;-69
2023/09/15 03:05:49;;;;;;;10.50;4.97;;;;;;;;;;5055209;28;20508;-70
2023/09/15 03:08:16;;;;;;;6.03;4.90;;;;;;;;;;5054473;28;20441;-70
2023/09/15 03:10:42;;;;;;;5.10;4.17;;;;;;;;;;5054694;28;20477;-70
2023/09/15 03:13:08;;;;;;;6.83;5.30;;;;;;;;;;5055334;28;20796;-70
2023/09/15 03:15:35;;;;;;;6.00;4.57;;;;;;;;;;5055219;28;20405;-70
2023/09/15 03:18:01;;;;;;;7.30;5.40;;;;;;;;;;5055167;28;20762;-69
2023/09/15 03:20:27;;;;;;;6.40;5.50;;;;;;;;;;5055556;28;20416;-70
2023/09/15 03:22:53;;;;;;;6.40;5.07;;;;;;;;;;5053955;28;20422;-69
2023/09/15 03:25:19;;;;;;;8.00;5.20;;;;;;;;;;5055237;28;20927;-69
2023/09/15 03:27:45;;;;;;;4.90;4.20;;;;;;;;;;5053391;28;20421;-69
2023/09/15 03:30:12;;;;;;;7.47;5.03;;;;;;;;;;5054461;28;20560;-69
2023/09/15 03:32:38;;;;;;;6.30;4.93;;;;;;;;;;5054611;28;20412;-69
2023/09/15 03:35:06;;;;;;;6.80;4.90;;;;;;;;;;5053309;28;20417;-70
2023/09/15 03:37:32;;;;;;;6.07;4.57;;;;;;;;;;5054876;28;20417;-69
2023/09/15 03:39:59;;;;;;;6.20;4.77;;;;;;;;;;5053766;28;20789;-70
2023/09/15 03:42:25;;;;;;;5.40;4.07;;;;;;;;;;5055626;28;20504;-70
2023/09/15 03:44:50;;;;;;;6.17;4.80;;;;;;;;;;5053251;28;21060;-70
2023/09/15 03:47:17;;;;;;;7.23;5.57;;;;;;;;;;5055623;28;20497;-70
2023/09/15 03:49:43;;;;;;;7.30;5.07;;;;;;;;;;5055429;28;20897;-70
2023/09/15 03:52:09;;;;;;;7.80;4.67;;;;;;;;;;5053820;28;20413;-70
2023/09/15 03:54:35;;;;;;;5.90;5.00;;;;;;;;;;5053704;28;20432;-70
2023/09/15 03:57:01;;;;;;;6.53;4.47;;;;;;;;;;5055031;28;20417;-70
2023/09/15 03:59:27;;;;;;;6.07;5.43;;;;;;;;;;5054169;28;20488;-70
2023/09/15 04:01:54;;;;;;;4.83;4.33;;;;;;;;;;5054587;28;20409;-70
2023/09/15 04:04:20;;;;;;;7.37;5.30;;;;;;;;;;5054932;28;20549;-71
2023/09/15 04:06:46;;;;;;;7.23;4.63;;;;;;;;;;5054231;28;20421;-71
2023/09/15 04:09:14;;;;;;;6.10;5.50;;;;;;;;;;5055077;28;20429;-71
2023/09/15 04:11:41;;;;;;;5.10;4.60;;;;;;;;;;5053859;28;20912;-71
2023/09/15 04:14:07;;;;;;;6.20;4.80;;;;;;;;;;5054825;28;20428;-71
2023/09/15 04:16:34;;;;;;;6.27;5.53;;;;;;;;;;5055033;28;20463;-71
2023/09/15 04:19:00;;;;;;;11.43;6.20;;;;;;;;;;5053746;28;21137;-72
2023/09/15 04:21:26;;;;;;;6.60;4.60;;;;;;;;;;5054019;28;20421;-71
2023/09/15 04:23:52;;;;;;;5.93;5.20;;;;;;;;;;5053364;28;20467;-70
2023/09/15 04:26:18;;;;;;;8.03;5.93;;;;;;;;;;5054313;28;20435;-70
2023/09/15 04:28:44;;;;;;;6.23;5.60;;;;;;;;;;5054486;28;20466;-71
2023/09/15 04:31:10;;;;;;;7.10;5.50;;;;;;;;;;5052445;28;20797;-70
2023/09/15 04:33:36;;;;;;;6.10;5.10;;;;;;;;;;5052819;28;20431;-70
2023/09/15 04:36:03;;;;;;;6.00;4.73;;;;;;;;;;5052750;28;20416;-70
2023/09/15 04:38:30;;;;;;;9.13;5.53;;;;;;;;;;5054416;28;20517;-70
2023/09/15 04:40:56;;;;;;;8.00;4.87;;;;;;;;;;5054533;28;20416;-70
2023/09/15 04:43:22;;;;;;;7.50;5.53;;;;;;;;;;5054334;28;20409;-71
2023/09/15 04:45:48;;;;;;;6.50;5.17;;;;;;;;;;5053526;28;20919;-70
2023/09/15 04:48:14;;;;;;;5.37;4.87;;;;;;;;;;5054484;28;20470;-70
2023/09/15 04:50:40;;;;;;;6.80;5.30;;;;;;;;;;5053917;28;20451;-70
2023/09/15 04:53:08;;;;;;;5.93;5.30;;;;;;;;;;5053205;28;20483;-70
2023/09/15 04:55:35;;;;;;;6.83;5.13;;;;;;;;;;5054084;28;20463;-70
2023/09/15 04:58:01;;;;;;;7.43;5.67;;;;;;;;;;5059629;28;20405;-73
2023/09/15 05:00:29;;;;;;;8.10;5.63;;;;;;;;;;5052312;28;20482;-69
2023/09/15 05:02:56;;;;;;;6.53;5.50;;;;;;;;;;5052655;28;20549;-69
2023/09/15 05:05:22;;;;;;;7.43;6.67;;;;;;;;;;5053127;28;20465;-70
2023/09/15 05:07:48;;;;;;;7.27;5.87;;;;;;;;;;5051468;28;20465;-70
2023/09/15 05:10:13;;;;;;;6.90;5.00;;;;;;;;;;5053086;28;20425;-71
2023/09/15 05:12:39;;;;;;;9.77;6.40;;;;;;;;;;5052330;28;20894;-70
2023/09/15 05:15:07;;;;;;;6.87;5.63;;;;;;;;;;5051551;28;20424;-70
2023/09/15 05:17:33;;;;;;;7.73;5.77;;;;;;;;;;5051365;28;20508;-70
2023/09/15 05:19:59;;;;;;;7.80;5.97;;;;;;;;;;5052440;28;20435;-70
2023/09/15 05:22:25;;;;;;;6.80;5.27;;;;;;;;;;5050909;28;20420;-71
2023/09/15 05:24:50;;;;;;;6.57;4.87;;;;;;;;;;5051160;28;20618;-70
2023/09/15 05:27:16;;;;;;;8.83;6.97;;;;;;;;;;5052325;28;20770;-69
2023/09/15 05:29:44;;;;;;;11.63;7.43;;;;;;;;;;5050847;28;20429;-69
2023/09/15 05:32:09;;;;;;;8.77;6.70;;;;;;;;;;5052062;28;20401;-70
2023/09/15 05:34:35;;;;;;;7.10;5.60;;;;;;;;;;5052341;28;20822;-69
2023/09/15 05:37:03;;;;;;;7.47;5.93;;;;;;;;;;5054047;28;20410;-68
2023/09/15 05:39:30;;;;;;;8.30;6.53;;;;;;;;;;5052965;28;20425;-70
2023/09/15 05:41:56;;;;;;;9.03;6.27;;;;;;;;;;5052735;28;20405;-69
2023/09/15 05:44:22;;;;;;;8.07;6.47;;;;;;;;;;5052947;28;20552;-68
2023/09/15 05:46:48;;;;;;;8.10;5.80;;;;;;;;;;5052980;28;20410;-69
2023/09/15 05:49:14;;;;;;;8.73;6.33;;;;;;;;;;5052391;28;20436;-69
2023/09/15 05:51:43;;;;;;;7.10;5.37;;;;;;;;;;5052668;28;20770;-71
2023/09/15 05:54:09;;;;;;;6.53;4.93;;;;;;;;;;5051605;28;20494;-69
2023/09/15 05:56:35;;;;;;;7.80;5.60;;;;;;;;;;5050863;28;20656;-70
2023/09/15 05:59:01;;;;;;;6.50;3.93;;;;;;;;;;5049235;28;20460;-70
2023/09/15 06:01:27;;;;;;;7.23;5.20;;;;;;;;;;5046644;28;20935;-70
2023/09/15 06:03:53;;;;;;;5.50;4.13;;;;;;;;;;5051758;28;20465;-70
2023/09/15 06:06:19;;;;;;;5.90;5.30;;;;;;;;;;5052976;28;20863;-70
2023/09/15 06:08:45;;;;;;;5.43;4.83;;;;;;;;;;5053036;28;20474;-70
2023/09/15 06:11:11;;;;;;;6.57;5.20;;;;;;;;;;5052532;28;20492;-69
2023/09/15 06:13:38;;;;;;;8.00;5.10;;;;;;;;;;5052492;28;20908;-69
2023/09/15 06:16:04;;;;;;;5.70;5.20;;;;;;;;;;5052114;28;20417;-69
2023/09/15 06:18:30;;;;;;;7.23;6.17;;;;;;;;;;5052172;28;20902;-70
2023/09/15 06:20:56;;;;;;;6.27;5.77;;;;;;;;;;5052312;28;20415;-69
2023/09/15 06:23:24;;;;;;;7.20;6.50;;;;;;;;;;5054179;28;20413;-69
2023/09/15 06:25:50;;;;;;;6.63;6.03;;;;;;;;;;5056344;28;20401;-70
2023/09/15 06:28:16;;;;;;;8.10;7.30;;;;;;;;;;5056654;28;20405;-70
2023/09/15 06:30:43;;;;;;;7.50;6.50;;;;;;;;;;5055356;28;20431;-70
2023/09/15 06:33:09;;;;;;;8.73;8.03;;;;;;;;;;5050624;28;20495;-70
2023/09/15 06:35:35;;;;;;;8.50;7.80;;;;;;;;;;5052634;28;20401;-72
2023/09/15 06:38:01;;;;;;;8.10;7.50;;;;;;;;;;5049027;28;20417;-70
2023/09/15 06:40:27;;;;;;;9.03;8.00;;;;;;;;;;5050960;28;20416;-70
2023/09/15 06:42:53;;;;;;;7.63;7.00;;;;;;;;;;5053416;28;20924;-70
2023/09/15 06:45:19;;;;;;;8.70;8.00;;;;;;;;;;5049085;28;20468;-69
2023/09/15 06:47:45;;;;;;;9.23;8.53;;;;;;;;;;5049707;28;20427;-70
2023/09/15 06:50:11;;;;;;;9.03;8.33;;;;;;;;;;5051130;28;20520;-71
2023/09/15 06:52:37;;;;;;;8.77;8.10;;;;;;;;;;5049454;28;20447;-70
2023/09/15 06:55:03;;;;;;;8.23;7.63;;;;;;;;;;5045189;28;20540;-69
2023/09/15 06:57:29;;;;;;;9.30;8.70;;;;;;;;;;5044921;28;20468;-69
2023/09/15 06:59:55;;;;;;;10.40;9.50;;;;;;;;;;5046731;28;20859;-70
2023/09/15 07:02:21;;;;;;;10.43;9.63;;;;;;;;;;5029713;28;20760;-71
2023/09/15 07:04:47;;;;;;;11.33;10.33;;;;;;;;;;5030511;28;20457;-68
2023/09/15 07:07:12;;;;;;;8.77;8.07;;;;;;;;;;5048507;28;20433;-70
2023/09/15 07:09:38;;;;;;;9.53;8.73;;;;;;;;;;5047632;28;20827;-67
2023/09/15 07:12:05;;;;;;;7.93;7.13;;;;;;;;;;5045680;28;20472;-70
2023/09/15 07:14:31;;;;;;;7.80;7.10;;;;;;;;;;5028983;28;20425;-70
2023/09/15 07:16:57;;;;;;;9.10;7.80;;;;;;;;;;5048226;28;20455;-70
2023/09/15 07:19:23;;;;;;;8.60;7.70;;;;;;;;;;5051507;28;20429;-70
2023/09/15 07:21:49;;;;;;;8.60;7.80;;;;;;;;;;5052095;28;20428;-70
2023/09/15 07:24:15;;;;;;;7.63;6.80;;;;;;;;;;5049806;28;20842;-69
2023/09/15 07:26:41;;;;;;;8.90;7.23;;;;;;;;;;5052150;28;20429;-69
2023/09/15 07:29:07;;;;;;;7.07;6.17;;;;;;;;;;5050817;28;20528;-69
2023/09/15 07:31:34;;;;;;;7.87;7.07;;;;;;;;;;5051673;28;20435;-70
2023/09/15 07:34:00;;;;;;;8.17;7.30;;;;;;;;;;5054956;28;20452;-69
2023/09/15 07:36:26;;;;;;;7.80;6.40;;;;;;;;;;5057933;28;20421;-68
2023/09/15 07:38:52;;;;;;;6.70;6.00;;;;;;;;;;5052726;28;20464;-70
2023/09/15 07:41:19;;;;;;;8.50;6.67;;;;;;;;;;5054424;28;20896;-70
2023/09/15 07:43:45;;;;;;;8.43;6.47;;;;;;;;;;5054643;28;21078;-70
2023/09/15 07:46:13;;;;;;;6.50;5.20;;;;;;;;;;5054951;28;20459;-70
2023/09/15 07:48:39;;;;;;;8.17;6.80;;;;;;;;;;5053602;28;20437;-70
2023/09/15 07:51:06;;;;;;;6.93;5.63;;;;;;;;;;5054319;28;20413;-70
2023/09/15 07:53:32;;;;;;;8.73;6.10;;;;;;;;;;5055063;28;20499;-70
2023/09/15 07:55:58;;;;;;;7.67;6.90;;;;;;;;;;5054848;28;20456;-70
2023/09/15 08:00:54;;;;;;;10.90;5.97;;;;;;;;;;5090729;28;20463;-69
2023/09/15 08:03:26;;;;;;;9.17;7.80;;;;;;;;;;5093315;28;20404;-70
2023/09/15 08:05:57;;;;;;;10.60;7.40;;;;;;;;;;5093525;28;20420;-70
2023/09/15 08:08:23;;;;;;;10.07;8.37;;;;;;;;;;5093409;28;20414;-70
2023/09/15 08:10:49;;;;;;;13.13;8.00;;;;;;;;;;5093195;28;20411;-70
2023/09/15 08:13:15;;;;;;;7.37;6.40;;;;;;;;;;5093284;28;20486;-69
2023/09/15 08:15:41;;;;;;;8.93;6.80;;;;;;;;;;5093589;28;20414;-70
2023/09/15 08:18:07;;;;;;;6.77;6.00;;;;;;;;;;5093280;28;20419;-69
2023/09/15 08:20:33;;;;;;;8.73;7.83;;;;;;;;;;5091697;28;20815;-70
2023/09/15 08:22:59;;;;;;;8.50;7.10;;;;;;;;;;5092962;28;20906;-69
2023/09/15 08:25:25;;;;;;;9.67;8.33;;;;;;;;;;5093119;28;20469;-70
2023/09/15 08:27:58;;;;;;;9.70;8.50;;;;;;;;;;5093228;28;20408;-70
2023/09/15 08:30:24;;;;;;;9.80;8.70;;;;;;;;;;5092590;28;20432;-70
2023/09/15 08:32:50;;;;;;;10.70;9.73;;;;;;;;;;5092381;28;20492;-70
2023/09/15 08:35:16;;;;;;;9.77;8.57;;;;;;;;;;5092990;28;20845;-70
2023/09/15 08:37:42;;;;;;;8.47;7.70;;;;;;;;;;5093001;28;20817;-71
2023/09/15 08:40:08;;;;;;;11.10;8.03;;;;;;;;;;5092853;28;20474;-68
2023/09/15 08:42:34;;;;;;;10.00;7.83;;;;;;;;;;5092613;28;20486;-69
2023/09/15 08:45:04;;;;;;;8.47;7.13;;;;;;;;;;5092689;28;20455;-68
2023/09/15 08:47:34;;;;;;;9.73;8.10;;;;;;;;;;5092702;28;20910;-68
2023/09/15 08:50:01;;;;;;;7.70;6.57;;;;;;;;;;5092535;28;20447;-69
2023/09/15 08:52:27;;;;;;;9.00;7.30;;;;;;;;;;5092150;28;20443;-68
2023/09/15 08:54:54;;;;;;;7.30;6.43;;;;;;;;;;5092559;28;20484;-69
2023/09/15 08:57:21;;;;;;;8.23;7.43;;;;;;;;;;5092797;28;20494;-69
2023/09/15 08:59:47;;;;;;;8.20;6.70;;;;;;;;;;5092275;28;20439;-69
2023/09/15 09:02:14;;;;;;;8.13;7.17;;;;;;;;;;5092291;28;20415;-70
2023/09/15 09:04:41;;;;;;;7.20;6.10;;;;;;;;;;5092448;28;20451;-69
2023/09/15 09:07:07;;;;;;;10.60;6.63;;;;;;;;;;5092422;28;20414;-70
2023/09/15 09:09:34;;;;;;;7.20;5.33;;;;;;;;;;5092234;28;20443;-70
2023/09/15 09:12:00;;;;;;;7.73;5.50;;;;;;;;;;5092098;28;20412;-71
2023/09/15 09:14:26;;;;;;;9.60;7.10;;;;;;;;;;5092396;28;20415;-69
2023/09/15 09:16:53;;;;;;;9.17;6.97;;;;;;;;;;5092130;28;20426;-74
2023/09/15 09:19:19;;;;;;;8.30;6.37;;;;;;;;;;5085217;28;20520;-70
2023/09/15 09:21:45;;;;;;;8.10;6.97;;;;;;;;;;5091311;28;20502;-70
2023/09/15 09:24:11;;;;;;;7.77;6.80;;;;;;;;;;5090699;28;20867;-70
2023/09/15 09:26:37;;;;;;;9.00;6.43;;;;;;;;;;5091149;28;20411;-70
2023/09/15 09:29:03;;;;;;;10.13;6.13;;;;;;;;;;5092143;28;20445;-70
2023/09/15 09:31:30;;;;;;;11.73;6.03;;;;;;;;;;5091688;28;20811;-70
2023/09/15 09:33:57;;;;;;;6.87;5.53;;;;;;;;;;5091927;28;20425;-70
2023/09/15 09:36:23;;;;;;;12.07;5.77;;;;;;;;;;5091831;28;20487;-70
2023/09/15 09:38:50;;;;;;;10.00;6.47;;;;;;;;;;5091799;28;20427;-70
2023/09/15 09:41:19;;;;;;;7.97;6.83;;;;;;;;;;5091095;28;20949;-70
2023/09/15 09:43:49;;;;;;;7.60;6.23;;;;;;;;;;5090215;28;20459;-70
2023/09/15 09:46:21;;;;;;;7.80;6.57;;;;;;;;;;5087031;28;20432;-70
2023/09/15 09:48:48;;;;;;;8.87;7.97;;;;;;;;;;5090282;28;20492;-70
2023/09/15 09:51:14;;;;;;;10.07;6.63;;;;;;;;;;5091245;28;20418;-70
2023/09/15 09:53:40;;;;;;;7.07;5.77;;;;;;;;;;5074818;28;20768;-70
2023/09/15 09:56:06;;;;;;;7.30;6.30;;;;;;;;;;5070102;28;20424;-70
2023/09/15 09:58:33;;;;;;;8.23;7.20;;;;;;;;;;5079665;28;20804;-70
2023/09/15 10:00:59;;;;;;;11.10;6.40;;;;;;;;;;5092383;28;20796;-70
2023/09/15 10:03:25;;;;;;;8.50;7.20;;;;;;;;;;5089809;28;20423;-71
2023/09/15 10:05:55;;;;;;;8.30;6.23;;;;;;;;;;5087616;28;20432;-71
2023/09/15 10:08:21;;;;;;;7.43;6.67;;;;;;;;;;5091485;28;20928;-71
2023/09/15 10:10:49;;;;;;;9.93;6.80;;;;;;;;;;5091461;28;20414;-71
2023/09/15 10:13:16;;;;;;;10.83;6.73;;;;;;;;;;5091338;28;20492;-71
2023/09/15 10:15:42;;;;;;;8.33;7.60;;;;;;;;;;5091199;28;20439;-71
2023/09/15 10:18:09;;;;;;;8.60;6.80;;;;;;;;;;5091095;28;20427;-71
2023/09/15 10:20:36;;;;;;;10.03;6.10;;;;;;;;;;5091235;28;20504;-75
2023/09/15 10:23:04;;;;;;;7.60;6.90;;;;;;;;;;5090941;28;20404;-71
2023/09/15 10:25:38;;;;;;;7.93;7.10;;;;;;;;;;5091101;28;21042;-70
2023/09/15 10:28:04;;;;;;;6.53;5.33;;;;;;;;;;5090576;28;20509;-70
2023/09/15 10:30:35;;;;;;;7.87;6.27;;;;;;;;;;5087989;28;20543;-69
2023/09/15 10:33:01;;;;;;;7.30;5.40;;;;;;;;;;5090727;28;20422;-69
2023/09/15 10:35:27;;;;;;;8.47;6.63;;;;;;;;;;5090965;28;20799;-69
2023/09/15 10:38:13;;;;;;;8.70;7.10;;;;;;;;;;5090686;28;20419;-69
2023/09/15 10:40:46;;;;;;;7.43;6.40;;;;;;;;;;5088294;28;20875;-69
2023/09/15 10:43:13;;;;;;;6.73;5.67;;;;;;;;;;5070505;28;20491;-69
2023/09/15 10:45:39;;;;;;;7.90;6.67;;;;;;;;;;5070574;28;20463;-69
2023/09/15 10:48:05;;;;;;;8.40;6.87;;;;;;;;;;5072992;28;20895;-69
2023/09/15 10:50:36;;;;;;;7.63;6.87;;;;;;;;;;5090750;28;20424;-68
2023/09/15 10:53:21;;;;;;;8.67;5.90;;;;;;;;;;5091974;28;20889;-70
2023/09/15 10:55:47;;;;;;;8.67;6.77;;;;;;;;;;5094751;28;20489;-69
2023/09/15 10:58:15;;;;;;;6.60;6.00;;;;;;;;;;5094407;28;20468;-70
2023/09/15 11:00:41;;;;;;;8.23;6.60;;;;;;;;;;5094540;28;20446;-69
2023/09/15 11:03:07;;;;;;;6.50;5.80;;;;;;;;;;5094444;28;20523;-70
2023/09/15 11:05:35;;;;;;;6.67;6.00;;;;;;;;;;5094484;28;20453;-71
2023/09/15 11:08:02;;;;;;;7.63;5.97;;;;;;;;;;5092920;28;20427;-70
2023/09/15 11:10:30;;;;;;;7.73;6.70;;;;;;;;;;5094545;28;20435;-68
2023/09/15 11:12:59;;;;;;;7.90;6.43;;;;;;;;;;5092830;28;20488;-69
2023/09/15 11:15:26;;;;;;;6.80;5.43;;;;;;;;;;5094507;28;20409;-70
2023/09/15 11:17:52;;;;;;;6.27;5.57;;;;;;;;;;5094118;28;20423;-69
2023/09/15 11:20:18;;;;;;;9.10;7.13;;;;;;;;;;5094196;28;20621;-68
2023/09/15 11:22:44;;;;;;;10.00;7.00;;;;;;;;;;5094626;28;20597;-69
2023/09/15 11:25:10;;;;;;;8.13;7.43;;;;;;;;;;5094641;28;20555;-69
2023/09/15 11:27:36;;;;;;;7.37;6.70;;;;;;;;;;5094293;28;20412;-70
2023/09/15 11:30:03;;;;;;;7.60;6.87;;;;;;;;;;5094030;28;20515;-70
2023/09/15 11:32:29;;;;;;;6.90;5.90;;;;;;;;;;5093763;28;20411;-70
2023/09/15 11:34:56;;;;;;;8.43;7.60;;;;;;;;;;5094109;28;20416;-71
2023/09/15 11:37:22;;;;;;;6.57;5.73;;;;;;;;;;5094282;28;20523;-70
2023/09/15 11:39:51;;;;;;;7.30;6.60;;;;;;;;;;5093787;28;20930;-69
2023/09/15 11:42:17;;;;;;;7.97;5.80;;;;;;;;;;5089360;28;20427;-70
2023/09/15 11:44:43;;;;;;;7.57;6.87;;;;;;;;;;5086136;28;20463;-71
2023/09/15 11:47:10;;;;;;;8.33;6.70;;;;;;;;;;5073700;28;20477;-70
2023/09/15 11:49:36;;;;;;;6.63;5.93;;;;;;;;;;5087431;28;20474;-70
2023/09/15 11:52:03;;;;;;;6.90;6.20;;;;;;;;;;5075852;28;20412;-69
2023/09/15 11:54:30;;;;;;;6.97;6.37;;;;;;;;;;5091681;28;20441;-69
2023/09/15 11:56:57;;;;;;;7.00;6.50;;;;;;;;;;5094184;28;20410;-70
2023/09/15 11:59:23;;;;;;;7.10;5.90;;;;;;;;;;5093539;28;20554;-70
2023/09/15 12:01:54;;;;;;;16.40;6.53;;;;;;;;;;5093718;28;20422;-70
2023/09/15 12:04:20;;;;;;;6.77;6.20;;;;;;;;;;5093873;28;20470;-70
2023/09/15 12:06:46;;;;;;;7.17;6.57;;;;;;;;;;5093645;28;20415;-70
2023/09/15 12:09:14;;;;;;;6.60;6.10;;;;;;;;;;5093894;28;20447;-70
2023/09/15 12:11:41;;;;;;;6.77;6.27;;;;;;;;;;5093761;28;20821;-69
2023/09/15 12:14:07;;;;;;;6.67;6.07;;;;;;;;;;5094291;28;20426;-68
2023/09/15 12:16:33;;;;;;;8.33;7.07;;;;;;;;;;5093895;28;20893;-69
2023/09/15 12:19:00;;;;;;;7.33;6.70;;;;;;;;;;5093379;28;20469;-69
2023/09/15 12:21:28;;;;;;;6.20;5.70;;;;;;;;;;5093319;28;20414;-70
2023/09/15 12:23:55;;;;;;;5.90;5.50;;;;;;;;;;5093476;28;20546;-69
2023/09/15 12:26:21;;;;;;;6.53;5.93;;;;;;;;;;5093439;28;20411;-69
2023/09/15 12:28:48;;;;;;;6.90;5.03;;;;;;;;;;5093093;28;20526;-69
2023/09/15 12:31:18;;;;;;;7.17;6.57;;;;;;;;;;5091626;28;20412;-69
2023/09/15 12:33:47;;;;;;;7.70;7.00;;;;;;;;;;5093188;28;20922;-69
2023/09/15 12:36:13;;;;;;;7.30;6.63;;;;;;;;;;5093246;28;20453;-69
2023/09/15 12:38:39;;;;;;;8.80;6.73;;;;;;;;;;5093114;28;20937;-69
2023/09/15 12:41:05;;;;;;;7.73;6.60;;;;;;;;;;5092868;28;20419;-69
2023/09/15 12:43:31;;;;;;;7.73;7.13;;;;;;;;;;5093025;28;20498;-69
2023/09/15 12:45:57;;;;;;;8.07;7.30;;;;;;;;;;5093014;28;20465;-68
2023/09/15 12:48:23;;;;;;;9.20;6.77;;;;;;;;;;5091236;28;20428;-68
2023/09/15 12:50:49;;;;;;;7.77;7.17;;;;;;;;;;5092918;28;20404;-68
2023/09/15 12:53:15;;;;;;;8.10;7.40;;;;;;;;;;5092676;28;20406;-69
2023/09/15 12:55:41;;;;;;;6.70;6.20;;;;;;;;;;5092862;28;20773;-68
2023/09/15 12:58:07;;;;;;;7.30;6.80;;;;;;;;;;5092624;28;20423;-68
2023/09/15 13:00:33;;;;;;;7.73;6.93;;;;;;;;;;5092421;28;20520;-68
2023/09/15 13:02:59;;;;;;;6.70;6.00;;;;;;;;;;5092588;28;20412;-68
2023/09/15 13:05:25;;;;;;;7.70;7.10;;;;;;;;;;5092641;28;20466;-68
2023/09/15 13:07:51;;;;;;;7.57;6.87;;;;;;;;;;5092417;28;20423;-69
2023/09/15 13:10:17;;;;;;;9.80;9.00;;;;;;;;;;5092488;28;20431;-68
2023/09/15 13:12:43;;;;;;;7.47;6.87;;;;;;;;;;5092466;28;20772;-68
2023/09/15 13:15:09;;;;;;;7.23;6.67;;;;;;;;;;5092592;28;20502;-70
2023/09/15 13:17:35;;;;;;;7.03;6.43;;;;;;;;;;5092383;28;20437;-69
2023/09/15 13:20:07;;;;;;;8.17;7.37;;;;;;;;;;5092446;28;20432;-70
2023/09/15 13:22:34;;;;;;;7.10;6.60;;;;;;;;;;5092148;28;20503;-69
2023/09/15 13:25:00;;;;;;;6.93;6.33;;;;;;;;;;5092254;28;20454;-69
2023/09/15 13:27:28;;;;;;;7.60;6.90;;;;;;;;;;5091835;28;20419;-69
2023/09/15 13:29:54;;;;;;;7.07;6.57;;;;;;;;;;5092351;28;20427;-70
2023/09/15 13:32:20;;;;;;;7.77;7.13;;;;;;;;;;5092092;28;20414;-69
2023/09/15 13:34:46;;;;;;;6.60;6.00;;;;;;;;;;5092080;28;20484;-69
2023/09/15 13:37:12;;;;;;;6.80;6.30;;;;;;;;;;5092035;28;20506;-70
2023/09/15 13:39:39;;;;;;;6.50;5.93;;;;;;;;;;5091950;28;20434;-69
2023/09/15 13:42:05;;;;;;;6.70;6.10;;;;;;;;;;5092297;28;20499;-69
2023/09/15 13:44:31;;;;;;;6.77;6.07;;;;;;;;;;5091993;28;20458;-69
2023/09/15 13:46:58;;;;;;;6.87;6.27;;;;;;;;;;5091596;28;20450;-70
2023/09/15 13:49:24;;;;;;;7.60;6.90;;;;;;;;;;5092146;28;20500;-70
2023/09/15 13:51:50;;;;;;;7.00;6.50;;;;;;;;;;5091969;28;20403;-69
2023/09/15 13:54:18;;;;;;;6.60;5.93;;;;;;;;;;5092095;28;20506;-69
2023/09/15 13:56:43;;;;;;;6.77;6.10;;;;;;;;;;5091804;28;20411;-69
2023/09/15 13:59:11;;;;;;;6.70;6.10;;;;;;;;;;5105971;22;20480;-69
2023/09/15 14:01:39;;;;;;;6.30;5.80;;;;;;;;;;5012098;28;20411;-69
2023/09/15 14:04:06;;;;;;;6.80;6.20;;;;;;;;;;5012041;28;20458;-69
2023/09/15 14:06:32;;;;;;;6.97;6.27;;;;;;;;;;5012031;28;20772;-70
2023/09/15 14:08:58;;;;;;;7.10;6.43;;;;;;;;;;5012105;28;20410;-70
2023/09/15 14:11:24;;;;;;;6.90;6.30;;;;;;;;;;5011730;28;20427;-70
2023/09/15 14:13:50;;;;;;;7.10;6.47;;;;;;;;;;5012110;28;20402;-70
2023/09/15 14:16:16;;;;;;;6.80;6.23;;;;;;;;;;5012053;28;20905;-70
2023/09/15 14:18:42;;;;;;;6.90;6.40;;;;;;;;;;5010704;28;20430;-70
2023/09/15 14:21:08;;;;;;;7.10;6.30;;;;;;;;;;5010722;28;20510;-70
2023/09/15 14:23:34;;;;;;;7.10;6.50;;;;;;;;;;5011692;28;20506;-70
2023/09/15 14:26:02;;;;;;;8.00;7.30;;;;;;;;;;5012015;28;20415;-69
2023/09/15 14:28:28;;;;;;;6.97;6.40;;;;;;;;;;5013675;28;20842;-69
2023/09/15 14:30:54;;;;;;;8.50;7.77;;;;;;;;;;5014615;28;20526;-69